createdAt,value
2017-10-01T00:00:32.621Z,97.75
2017-10-01T00:01:41.450Z,97.56
2017-10-01T00:02:50.283Z,97.85
2017-10-01T00:03:59.113Z,97.85
2017-10-01T00:05:07.946Z,97.85
2017-10-01T00:06:16.780Z,98.03
2017-10-01T00:07:25.614Z,97.37
2017-10-01T00:08:34.598Z,97.56
2017-10-01T00:09:43.431Z,97.75
2017-10-01T00:10:52.261Z,97.8
2017-10-01T00:12:01.091Z,96.98
2017-10-01T00:13:09.921Z,97.75
2017-10-01T00:14:18.854Z,97.66
2017-10-01T00:15:27.689Z,97.66
2017-10-01T00:16:36.521Z,97.46
2017-10-01T00:17:45.354Z,97.22
2017-10-01T00:18:54.185Z,97.27
2017-10-01T00:20:03.070Z,96.98
2017-10-01T00:21:11.903Z,97.46
2017-10-01T00:22:20.735Z,97.08
2017-10-01T00:23:29.567Z,97.27
2017-10-01T00:24:38.400Z,97.46
2017-10-01T00:25:47.563Z,97.75
2017-10-01T00:26:56.397Z,97.08
2017-10-01T00:28:05.233Z,97.37
2017-10-01T00:29:14.393Z,97.56
2017-10-01T00:30:23.230Z,97.75
2017-10-01T00:31:32.356Z,96.98
2017-10-01T00:32:41.187Z,97.42
2017-10-01T00:33:50.021Z,97.27
2017-10-01T00:34:58.855Z,97.27
2017-10-01T00:36:07.688Z,96.89
2017-10-01T00:37:16.670Z,97.56
2017-10-01T00:38:25.833Z,97.08
2017-10-01T00:39:34.666Z,97.22
2017-10-01T00:40:43.498Z,97.17
2017-10-01T00:41:52.327Z,96.84
2017-10-01T00:43:01.461Z,97.22
2017-10-01T00:44:10.292Z,97.22
2017-10-01T00:45:19.123Z,96.89
2017-10-01T00:46:27.957Z,96.7
2017-10-01T00:47:36.791Z,97.08
2017-10-01T00:48:46.108Z,96.8
2017-10-01T00:49:54.940Z,96.98
2017-10-01T00:51:03.769Z,97.17
2017-10-01T00:52:12.601Z,97.17
2017-10-01T00:53:21.435Z,97.08
2017-10-01T00:54:30.417Z,97.08
2017-10-01T00:55:39.249Z,97.17
2017-10-01T00:56:48.084Z,97.08
2017-10-01T00:57:56.917Z,97.17
2017-10-01T00:59:05.749Z,96.89
2017-10-01T01:00:14.731Z,97.42
2017-10-01T01:01:23.560Z,96.89
2017-10-01T01:02:32.401Z,97.17
2017-10-01T01:03:41.233Z,97.37
2017-10-01T01:04:50.066Z,97.17
2017-10-01T01:05:58.946Z,97.37
2017-10-01T01:07:07.777Z,97.17
2017-10-01T01:08:16.611Z,97.08
2017-10-01T01:09:25.775Z,97.17
2017-10-01T01:10:34.608Z,97.56
2017-10-01T01:11:43.589Z,97.56
2017-10-01T01:12:52.419Z,97.56
2017-10-01T01:14:01.252Z,97.17
2017-10-01T01:15:10.084Z,97.94
2017-10-01T01:16:18.916Z,97.85
2017-10-01T01:17:27.900Z,97.46
2017-10-01T01:18:36.732Z,97.94
2017-10-01T01:19:45.567Z,97.75
2017-10-01T01:20:54.398Z,97.75
2017-10-01T01:22:03.231Z,96.84
2017-10-01T01:23:12.109Z,97.56
2017-10-01T01:24:20.940Z,98.13
2017-10-01T01:25:29.773Z,97.99
2017-10-01T01:26:38.601Z,97.41
2017-10-01T01:27:47.435Z,97.56
2017-10-01T01:28:56.366Z,97.51
2017-10-01T01:30:05.195Z,96.98
2017-10-01T01:31:14.028Z,97.61
2017-10-01T01:32:23.195Z,97.22
2017-10-01T01:33:32.028Z,97.99
2017-10-01T01:34:40.862Z,97.99
2017-10-01T01:35:49.694Z,97.7
2017-10-01T01:36:58.525Z,97.51
2017-10-01T01:38:07.353Z,97.89
2017-10-01T01:39:16.183Z,97.99
2017-10-01T01:40:25.115Z,97.61
2017-10-01T01:41:33.948Z,98.65
2017-10-01T01:42:42.780Z,98.36
2017-10-01T01:43:51.613Z,98.56
2017-10-01T01:45:00.448Z,98.36
2017-10-01T01:46:09.382Z,98.27
2017-10-01T01:47:18.214Z,98.46
2017-10-01T01:48:27.044Z,98.27
2017-10-01T01:49:35.878Z,98.27
2017-10-01T01:50:44.709Z,98.56
2017-10-01T01:51:53.541Z,98.56
2017-10-01T01:53:02.372Z,98.56
2017-10-01T01:54:11.206Z,98.18
2017-10-01T01:55:20.038Z,98.56
2017-10-01T01:56:28.870Z,98.94
2017-10-01T01:57:37.801Z,99.04
2017-10-01T01:58:46.630Z,98.51
2017-10-01T01:59:55.462Z,98.65
2017-10-01T02:01:04.293Z,98.75
2017-10-01T02:02:13.130Z,98.56
2017-10-01T02:03:22.004Z,99.37
2017-10-01T02:04:30.836Z,99.8
2017-10-01T02:05:39.668Z,99.37
2017-10-01T02:06:48.499Z,99.55
2017-10-01T02:07:57.330Z,99.55
2017-10-01T02:09:06.311Z,99.27
2017-10-01T02:10:15.142Z,99.46
2017-10-01T02:11:23.975Z,99.55
2017-10-01T02:12:32.807Z,99.18
2017-10-01T02:13:41.640Z,99.46
2017-10-01T02:14:50.472Z,99.55
2017-10-01T02:15:59.305Z,99.65
2017-10-01T02:17:08.468Z,99.75
2017-10-01T02:18:17.299Z,99.27
2017-10-01T02:19:26.132Z,99.46
2017-10-01T02:20:34.965Z,99.27
2017-10-01T02:21:44.127Z,99.27
2017-10-01T02:22:52.957Z,99.27
2017-10-01T02:24:01.789Z,99.65
2017-10-01T02:25:10.621Z,99.55
2017-10-01T02:26:19.751Z,99.55
2017-10-01T02:27:28.917Z,99.55
2017-10-01T02:28:37.747Z,99.37
2017-10-01T02:29:46.578Z,99.37
2017-10-01T02:30:55.409Z,99.27
2017-10-01T02:32:04.291Z,99.65
2017-10-01T02:33:13.451Z,99.46
2017-10-01T02:34:22.285Z,99.55
2017-10-01T02:35:31.117Z,99.37
2017-10-01T02:36:39.950Z,99.27
2017-10-01T02:37:49.082Z,99.65
2017-10-01T02:38:57.909Z,99.65
2017-10-01T02:40:06.743Z,99.37
2017-10-01T02:41:15.572Z,99.27
2017-10-01T02:42:24.401Z,99.65
2017-10-01T02:43:33.333Z,99.27
2017-10-01T02:44:42.166Z,99.65
2017-10-01T02:45:50.998Z,99.46
2017-10-01T02:46:59.830Z,99.55
2017-10-01T02:48:08.661Z,99.55
2017-10-01T02:49:17.641Z,99.08
2017-10-01T02:50:26.821Z,99.65
2017-10-01T02:51:35.645Z,99.08
2017-10-01T02:52:44.810Z,99.55
2017-10-01T02:53:53.975Z,99.75
2017-10-01T02:55:02.908Z,99.08
2017-10-01T02:56:12.069Z,99.08
2017-10-01T02:57:20.900Z,98.89
2017-10-01T02:58:29.733Z,98.7
2017-10-01T02:59:38.560Z,98.79
2017-10-01T03:00:47.491Z,98.79
2017-10-01T03:01:56.320Z,98.79
2017-10-01T03:03:05.153Z,98.79
2017-10-01T03:04:13.985Z,98.79
2017-10-01T03:05:22.817Z,99.18
2017-10-01T03:06:31.648Z,98.89
2017-10-01T03:07:40.478Z,98.79
2017-10-01T03:08:49.310Z,99.08
2017-10-01T03:09:58.140Z,98.89
2017-10-01T03:11:06.970Z,98.6
2017-10-01T03:12:15.953Z,98.99
2017-10-01T03:13:24.789Z,98.79
2017-10-01T03:14:33.620Z,98.99
2017-10-01T03:15:42.454Z,98.6
2017-10-01T03:16:51.285Z,98.27
2017-10-01T03:18:00.267Z,98.51
2017-10-01T03:19:09.097Z,98.41
2017-10-01T03:20:17.930Z,98.32
2017-10-01T03:21:26.761Z,98.7
2017-10-01T03:22:35.591Z,98.46
2017-10-01T03:23:44.423Z,98.7
2017-10-01T03:24:53.257Z,98.7
2017-10-01T03:26:02.419Z,98.7
2017-10-01T03:27:11.248Z,98.46
2017-10-01T03:28:20.081Z,98.7
2017-10-01T03:29:29.392Z,98.84
2017-10-01T03:30:38.221Z,98.89
2017-10-01T03:31:47.391Z,98.94
2017-10-01T03:32:56.551Z,98.84
2017-10-01T03:34:05.383Z,98.94
2017-10-01T03:35:14.363Z,98.89
2017-10-01T03:36:23.191Z,98.84
2017-10-01T03:37:32.023Z,98.84
2017-10-01T03:38:40.857Z,98.46
2017-10-01T03:39:50.015Z,98.46
2017-10-01T03:40:58.848Z,98.27
2017-10-01T03:42:07.678Z,98.55
2017-10-01T03:43:16.510Z,98.27
2017-10-01T03:44:25.342Z,98.55
2017-10-01T03:45:34.172Z,98.18
2017-10-01T03:46:43.404Z,98.27
2017-10-01T03:47:52.237Z,98.18
2017-10-01T03:49:01.088Z,98.27
2017-10-01T03:50:10.229Z,98.08
2017-10-01T03:51:19.062Z,98.18
2017-10-01T03:52:27.993Z,98.08
2017-10-01T03:53:36.823Z,98.27
2017-10-01T03:54:45.650Z,98.27
2017-10-01T03:55:54.482Z,98.27
2017-10-01T03:57:03.311Z,98.27
2017-10-01T03:58:12.291Z,98.36
2017-10-01T03:59:21.121Z,98.46
2017-10-01T04:00:29.953Z,98.46
2017-10-01T04:01:38.784Z,98.08
2017-10-01T04:02:47.617Z,98.65
2017-10-01T04:03:56.750Z,98.46
2017-10-01T04:05:05.577Z,98.65
2017-10-01T04:06:14.409Z,98.18
2017-10-01T04:07:23.239Z,98.46
2017-10-01T04:08:32.073Z,98.55
2017-10-01T04:09:41.388Z,98.46
2017-10-01T04:10:50.218Z,98.18
2017-10-01T04:11:59.049Z,97.99
2017-10-01T04:13:07.881Z,97.89
2017-10-01T04:14:16.712Z,98.27
2017-10-01T04:15:26.175Z,97.89
2017-10-01T04:16:35.006Z,97.89
2017-10-01T04:17:43.837Z,98.18
2017-10-01T04:18:52.670Z,98.08
2017-10-01T04:20:01.500Z,98.27
2017-10-01T04:21:11.062Z,97.99
2017-10-01T04:22:19.892Z,97.89
2017-10-01T04:23:28.725Z,97.89
2017-10-01T04:24:37.556Z,97.89
2017-10-01T04:25:46.386Z,97.99
2017-10-01T04:26:55.218Z,98.08
2017-10-01T04:28:04.049Z,97.89
2017-10-01T04:29:13.541Z,98.55
2017-10-01T04:30:22.372Z,98.08
2017-10-01T04:31:31.203Z,98.27
2017-10-01T04:32:40.033Z,98.18
2017-10-01T04:33:48.863Z,98.18
2017-10-01T04:34:57.692Z,98.08
2017-10-01T04:36:06.524Z,98.18
2017-10-01T04:37:15.355Z,98.08
2017-10-01T04:38:24.184Z,98.27
2017-10-01T04:39:33.017Z,98.22
2017-10-01T04:40:41.846Z,98.22
2017-10-01T04:41:50.675Z,98.32
2017-10-01T04:42:59.508Z,98.5
2017-10-01T04:44:08.672Z,98.6
2017-10-01T04:45:17.502Z,98.32
2017-10-01T04:46:26.330Z,98.13
2017-10-01T04:47:35.163Z,98.41
2017-10-01T04:48:43.996Z,98.41
2017-10-01T04:49:52.975Z,97.93
2017-10-01T04:51:01.806Z,98.22
2017-10-01T04:52:10.635Z,98.22
2017-10-01T04:53:19.464Z,98.03
2017-10-01T04:54:28.295Z,97.93
2017-10-01T04:55:37.125Z,98.22
2017-10-01T04:56:45.959Z,98.6
2017-10-01T04:57:54.787Z,98.6
2017-10-01T04:59:03.947Z,98.5
2017-10-01T05:00:12.781Z,98.6
2017-10-01T05:01:21.910Z,98.6
2017-10-01T05:02:30.742Z,98.5
2017-10-01T05:03:39.574Z,98.41
2017-10-01T05:04:48.406Z,98.41
2017-10-01T05:05:57.236Z,98.5
2017-10-01T05:07:06.167Z,99.46
2017-10-01T05:08:14.997Z,98.6
2017-10-01T05:09:23.831Z,98.5
2017-10-01T05:10:32.665Z,98.69
2017-10-01T05:11:41.496Z,98.69
2017-10-01T05:12:50.378Z,98.41
2017-10-01T05:13:59.211Z,99.27
2017-10-01T05:15:08.043Z,98.98
2017-10-01T05:16:16.874Z,99.27
2017-10-01T05:17:26.037Z,99.46
2017-10-01T05:18:34.871Z,98.98
2017-10-01T05:19:44.038Z,99.55
2017-10-01T05:20:52.870Z,99.36
2017-10-01T05:22:01.793Z,99.99
2017-10-01T05:23:10.667Z,99.99
2017-10-01T05:24:19.497Z,99.93
2017-10-01T05:25:28.330Z,99.99
2017-10-01T05:26:37.171Z,99.74
2017-10-01T05:27:46.325Z,99.84
2017-10-01T05:28:55.157Z,99.99
2017-10-01T05:30:03.992Z,99.99
2017-10-01T05:31:12.823Z,99.99
2017-10-01T05:32:21.655Z,99.93
2017-10-01T05:33:30.489Z,99.93
2017-10-01T05:34:39.320Z,99.99
2017-10-01T05:35:48.149Z,99.99
2017-10-01T05:36:56.980Z,99.99
2017-10-01T05:38:05.811Z,99.99
2017-10-01T05:39:14.641Z,99.65
2017-10-01T05:40:23.472Z,99.93
2017-10-01T05:41:32.636Z,99.84
2017-10-01T05:42:41.475Z,99.93
2017-10-01T05:43:50.546Z,99.93
2017-10-01T05:44:59.378Z,99.65
2017-10-01T05:46:08.210Z,99.55
2017-10-01T05:47:17.039Z,99.36
2017-10-01T05:48:25.870Z,99.46
2017-10-01T05:49:35.000Z,98.79
2017-10-01T05:50:43.833Z,99.27
2017-10-01T05:51:52.664Z,98.98
2017-10-01T05:53:01.496Z,99.27
2017-10-01T05:54:10.326Z,99.17
2017-10-01T05:55:19.156Z,99.27
2017-10-01T05:56:27.991Z,98.98
2017-10-01T05:57:36.823Z,98.5
2017-10-01T05:58:45.655Z,98.69
2017-10-01T05:59:54.819Z,98.98
2017-10-01T06:01:03.700Z,98.6
2017-10-01T06:02:12.532Z,98.32
2017-10-01T06:03:21.371Z,98.32
2017-10-01T06:04:30.530Z,98.6
2017-10-01T06:05:39.361Z,98.5
2017-10-01T06:06:48.242Z,98.32
2017-10-01T06:07:57.072Z,98.03
2017-10-01T06:09:05.904Z,98.03
2017-10-01T06:10:14.736Z,97.93
2017-10-01T06:11:23.567Z,98.22
2017-10-01T06:12:32.697Z,98.41
2017-10-01T06:13:41.856Z,98.13
2017-10-01T06:14:50.689Z,98.03
2017-10-01T06:15:59.518Z,98.03
2017-10-01T06:17:08.349Z,97.93
2017-10-01T06:18:17.181Z,98.03
2017-10-01T06:19:26.014Z,97.74
2017-10-01T06:20:34.845Z,97.27
2017-10-01T06:21:43.674Z,97.36
2017-10-01T06:22:52.504Z,97.08
2017-10-01T06:24:01.488Z,97.27
2017-10-01T06:25:10.321Z,97.65
2017-10-01T06:26:19.154Z,97.36
2017-10-01T06:27:27.986Z,97.46
2017-10-01T06:28:36.820Z,97.08
2017-10-01T06:29:45.800Z,97.27
2017-10-01T06:30:54.629Z,97.17
2017-10-01T06:32:03.462Z,97.36
2017-10-01T06:33:12.626Z,96.98
2017-10-01T06:34:21.463Z,96.79
2017-10-01T06:35:30.450Z,96.89
2017-10-01T06:36:39.625Z,96.98
2017-10-01T06:37:51.042Z,96.89
2017-10-01T06:39:02.845Z,96.6
2017-10-01T06:40:13.225Z,96.79
2017-10-01T06:41:24.625Z,96.75
2017-10-01T06:42:33.478Z,96.65
2017-10-01T06:43:42.378Z,96.65
2017-10-01T06:44:51.579Z,96.51
2017-10-01T06:46:00.409Z,96.55
2017-10-01T06:47:09.332Z,96.46
2017-10-01T06:48:18.165Z,96.46
2017-10-01T06:49:27.327Z,96.65
2017-10-01T06:50:36.164Z,96.08
2017-10-01T06:51:45.000Z,96.08
2017-10-01T06:52:53.991Z,96.17
2017-10-01T06:54:02.857Z,96.17
2017-10-01T06:55:11.694Z,96.08
2017-10-01T06:56:20.523Z,96.36
2017-10-01T06:57:29.355Z,96.17
2017-10-01T06:58:38.288Z,96.08
2017-10-01T06:59:47.120Z,96.36
2017-10-01T07:00:55.955Z,95.98
2017-10-01T07:02:04.789Z,95.98
2017-10-01T07:03:13.625Z,95.98
2017-10-01T07:04:22.712Z,95.98
2017-10-01T07:05:31.545Z,96.08
2017-10-01T07:06:40.378Z,96.17
2017-10-01T07:07:49.212Z,95.6
2017-10-01T07:08:58.044Z,95.89
2017-10-01T07:10:06.931Z,95.7
2017-10-01T07:11:16.104Z,95.89
2017-10-01T07:12:24.938Z,95.98
2017-10-01T07:13:33.771Z,95.7
2017-10-01T07:14:42.604Z,95.89
2017-10-01T07:15:51.738Z,95.51
2017-10-01T07:17:00.573Z,95.7
2017-10-01T07:18:09.407Z,95.6
2017-10-01T07:19:18.238Z,95.7
2017-10-01T07:20:27.069Z,95.79
2017-10-01T07:21:36.008Z,95.6
2017-10-01T07:22:44.843Z,95.65
2017-10-01T07:23:53.676Z,95.7
2017-10-01T07:25:02.514Z,95.84
2017-10-01T07:26:11.672Z,95.79
2017-10-01T07:27:20.656Z,95.84
2017-10-01T07:28:29.489Z,95.84
2017-10-01T07:29:38.323Z,95.75
2017-10-01T07:30:47.157Z,95.65
2017-10-01T07:31:55.991Z,96.03
2017-10-01T07:33:04.873Z,95.56
2017-10-01T07:34:13.706Z,95.84
2017-10-01T07:35:22.537Z,95.56
2017-10-01T07:36:31.372Z,95.75
2017-10-01T07:37:40.546Z,95.84
2017-10-01T07:38:49.679Z,96.03
2017-10-01T07:39:58.512Z,95.65
2017-10-01T07:41:07.345Z,95.36
2017-10-01T07:42:16.176Z,95.46
2017-10-01T07:43:25.008Z,95.17
2017-10-01T07:44:34.155Z,95.56
2017-10-01T07:45:43.546Z,95.65
2017-10-01T07:46:52.379Z,95.27
2017-10-01T07:48:01.218Z,95.84
2017-10-01T07:49:10.042Z,95.56
2017-10-01T07:50:19.024Z,95.84
2017-10-01T07:51:27.857Z,95.46
2017-10-01T07:52:36.690Z,95.65
2017-10-01T07:53:45.542Z,95.32
2017-10-01T07:54:54.391Z,95.36
2017-10-01T07:56:03.276Z,95.41
2017-10-01T07:57:12.446Z,95.61
2017-10-01T07:58:21.279Z,95.89
2017-10-01T07:59:30.112Z,95.89
2017-10-01T08:00:38.946Z,95.7
2017-10-01T08:01:47.934Z,95.89
2017-10-01T08:02:56.775Z,95.7
2017-10-01T08:04:05.604Z,95.7
2017-10-01T08:05:14.491Z,96.08
2017-10-01T08:06:23.322Z,95.79
2017-10-01T08:07:32.205Z,95.89
2017-10-01T08:08:41.039Z,95.89
2017-10-01T08:09:49.872Z,95.79
2017-10-01T08:10:58.705Z,95.41
2017-10-01T08:12:07.541Z,95.61
2017-10-01T08:13:16.522Z,95.98
2017-10-01T08:14:25.362Z,95.79
2017-10-01T08:15:34.191Z,95.89
2017-10-01T08:16:43.024Z,95.89
2017-10-01T08:17:51.860Z,95.75
2017-10-01T08:19:00.995Z,95.89
2017-10-01T08:20:10.158Z,96.7
2017-10-01T08:21:18.988Z,97.37
2017-10-01T08:22:27.822Z,97.56
2017-10-01T08:23:36.654Z,97.27
2017-10-01T08:24:45.638Z,97.46
2017-10-01T08:25:54.474Z,97.56
2017-10-01T08:27:03.307Z,97.46
2017-10-01T08:28:12.142Z,97.37
2017-10-01T08:29:21.308Z,97.94
2017-10-01T08:30:30.293Z,98.13
2017-10-01T08:31:39.124Z,99.46
2017-10-01T08:32:47.960Z,99.95
2017-10-01T08:33:56.792Z,99.99
2017-10-01T08:35:05.627Z,99.99
2017-10-01T08:36:14.560Z,99.99
2017-10-01T08:37:23.394Z,99.99
2017-10-01T08:38:32.227Z,99.99
2017-10-01T08:39:41.064Z,99.99
2017-10-01T08:40:49.891Z,99.99
2017-10-01T08:41:58.874Z,99.99
2017-10-01T08:43:07.724Z,99.99
2017-10-01T08:44:16.560Z,99.99
2017-10-01T08:45:25.392Z,99.99
2017-10-01T08:46:34.226Z,99.99
2017-10-01T08:47:43.262Z,99.99
2017-10-01T08:48:52.093Z,99.99
2017-10-01T08:50:00.927Z,99.99
2017-10-01T08:51:09.763Z,99.99
2017-10-01T08:52:18.603Z,99.99
2017-10-01T08:53:27.485Z,99.99
2017-10-01T08:54:36.320Z,99.99
2017-10-01T08:55:45.154Z,99.99
2017-10-01T08:56:53.987Z,99.99
2017-10-01T08:58:02.820Z,99.99
2017-10-01T08:59:11.809Z,99.99
2017-10-01T09:00:20.642Z,99.99
2017-10-01T09:01:29.477Z,99.99
2017-10-01T09:02:38.313Z,99.99
2017-10-01T09:03:47.147Z,99.99
2017-10-01T09:04:56.231Z,99.99
2017-10-01T09:06:05.067Z,99.99
2017-10-01T09:07:13.902Z,99.99
2017-10-01T09:08:22.737Z,99.99
2017-10-01T09:09:31.572Z,99.99
2017-10-01T09:10:40.556Z,99.99
2017-10-01T09:11:49.729Z,99.99
2017-10-01T09:12:58.566Z,99.99
2017-10-01T09:14:07.400Z,99.99
2017-10-01T09:15:16.234Z,99.99
2017-10-01T09:16:25.074Z,99.99
2017-10-01T09:17:33.908Z,99.99
2017-10-01T09:18:42.743Z,99.99
2017-10-01T09:19:51.580Z,99.99
2017-10-01T09:21:00.538Z,99.99
2017-10-01T09:22:09.658Z,99.99
2017-10-01T09:23:18.491Z,99.99
2017-10-01T09:24:27.325Z,99.99
2017-10-01T09:25:36.158Z,99.99
2017-10-01T09:26:44.993Z,99.99
2017-10-01T09:27:53.978Z,99.99
2017-10-01T09:29:02.812Z,99.99
2017-10-01T09:30:11.647Z,99.99
2017-10-01T09:31:20.481Z,99.99
2017-10-01T09:32:29.312Z,99.99
2017-10-01T09:33:38.246Z,99.99
2017-10-01T09:34:47.081Z,99.99
2017-10-01T09:35:55.917Z,99.99
2017-10-01T09:37:04.753Z,99.99
2017-10-01T09:38:13.917Z,99.99
2017-10-01T09:39:22.752Z,99.99
2017-10-01T09:40:31.587Z,99.99
2017-10-01T09:41:40.419Z,99.99
2017-10-01T09:42:49.257Z,99.99
2017-10-01T09:43:58.089Z,99.99
2017-10-01T09:45:07.023Z,99.99
2017-10-01T09:46:15.859Z,99.99
2017-10-01T09:47:24.694Z,99.99
2017-10-01T09:48:33.530Z,99.99
2017-10-01T09:49:42.364Z,99.99
2017-10-01T09:50:51.299Z,99.99
2017-10-01T09:52:00.131Z,99.99
2017-10-01T09:53:08.966Z,99.99
2017-10-01T09:54:17.797Z,99.99
2017-10-01T09:55:26.630Z,99.99
2017-10-01T09:56:35.522Z,99.99
2017-10-01T09:57:44.357Z,99.99
2017-10-01T09:58:53.192Z,99.99
2017-10-01T10:00:02.031Z,99.99
2017-10-01T10:01:10.863Z,99.99
2017-10-01T10:02:19.748Z,99.99
2017-10-01T10:03:28.581Z,99.99
2017-10-01T10:04:37.415Z,99.99
2017-10-01T10:05:46.249Z,99.99
2017-10-01T10:06:55.086Z,99.99
2017-10-01T10:08:04.218Z,99.99
2017-10-01T10:09:13.051Z,99.99
2017-10-01T10:10:21.886Z,99.99
2017-10-01T10:11:31.058Z,99.99
2017-10-01T10:12:39.894Z,99.99
2017-10-01T10:13:48.878Z,99.99
2017-10-01T10:14:57.712Z,99.99
2017-10-01T10:16:06.545Z,99.99
2017-10-01T10:17:15.379Z,99.99
2017-10-01T10:18:24.213Z,99.99
2017-10-01T10:19:33.350Z,99.99
2017-10-01T10:20:42.187Z,99.99
2017-10-01T10:21:51.020Z,99.99
2017-10-01T10:22:59.855Z,99.99
2017-10-01T10:24:09.018Z,99.99
2017-10-01T10:25:18.051Z,99.99
2017-10-01T10:26:26.886Z,99.99
2017-10-01T10:27:35.720Z,99.99
2017-10-01T10:28:44.552Z,99.99
2017-10-01T10:29:53.383Z,99.99
2017-10-01T10:31:02.368Z,99.99
2017-10-01T10:32:11.203Z,99.99
2017-10-01T10:33:20.040Z,99.99
2017-10-01T10:34:28.874Z,99.99
2017-10-01T10:35:37.711Z,99.99
2017-10-01T10:36:46.926Z,99.99
2017-10-01T10:37:55.788Z,99.99
2017-10-01T10:39:04.597Z,99.99
2017-10-01T10:40:13.431Z,99.99
2017-10-01T10:41:22.595Z,99.99
2017-10-01T10:42:31.533Z,99.99
2017-10-01T10:43:40.367Z,99.99
2017-10-01T10:44:49.540Z,99.99
2017-10-01T10:45:58.376Z,99.99
2017-10-01T10:47:07.213Z,99.99
2017-10-01T10:48:16.096Z,99.99
2017-10-01T10:49:24.930Z,99.99
2017-10-01T10:50:33.764Z,99.99
2017-10-01T10:51:42.606Z,99.99
2017-10-01T10:52:51.442Z,99.99
2017-10-01T10:54:00.275Z,99.99
2017-10-01T10:55:09.110Z,99.99
2017-10-01T10:56:17.947Z,99.99
2017-10-01T10:57:26.783Z,99.99
2017-10-01T10:58:36.009Z,99.99
2017-10-01T10:59:44.867Z,99.99
2017-10-01T11:00:53.709Z,99.99
2017-10-01T11:02:02.636Z,99.99
2017-10-01T11:03:11.714Z,99.99
2017-10-01T11:04:21.210Z,99.99
2017-10-01T11:05:30.210Z,99.99
2017-10-01T11:06:39.386Z,99.99
2017-10-01T11:07:48.230Z,99.99
2017-10-01T11:08:57.065Z,99.99
2017-10-01T11:10:05.901Z,99.99
2017-10-01T11:11:15.226Z,99.99
2017-10-01T11:12:24.061Z,99.99
2017-10-01T11:13:32.897Z,99.99
2017-10-01T11:14:41.732Z,99.99
2017-10-01T11:15:50.573Z,99.99
2017-10-01T11:16:59.713Z,99.99
2017-10-01T11:18:08.557Z,99.99
2017-10-01T11:19:17.736Z,99.99
2017-10-01T11:20:26.578Z,99.99
2017-10-01T11:21:35.413Z,99.99
2017-10-01T11:22:44.551Z,99.99
2017-10-01T11:23:53.384Z,99.99
2017-10-01T11:25:02.218Z,99.99
2017-10-01T11:26:11.059Z,99.99
2017-10-01T11:27:19.901Z,99.99
2017-10-01T11:28:28.836Z,99.99
2017-10-01T11:29:37.674Z,99.99
2017-10-01T11:30:46.512Z,99.99
2017-10-01T11:31:55.345Z,99.99
2017-10-01T11:33:04.180Z,99.99
2017-10-01T11:34:13.064Z,99.99
2017-10-01T11:35:21.900Z,99.99
2017-10-01T11:36:30.735Z,99.99
2017-10-01T11:37:39.571Z,99.99
2017-10-01T11:38:48.404Z,99.99
2017-10-01T11:39:57.441Z,99.99
2017-10-01T11:41:06.277Z,99.99
2017-10-01T11:42:15.113Z,99.99
2017-10-01T11:43:23.948Z,99.99
2017-10-01T11:44:32.784Z,99.99
2017-10-01T11:45:42.002Z,99.99
2017-10-01T11:46:50.840Z,99.99
2017-10-01T11:47:59.677Z,99.99
2017-10-01T11:49:08.512Z,99.99
2017-10-01T11:50:17.349Z,99.99
2017-10-01T11:51:26.186Z,99.99
2017-10-01T11:52:35.026Z,99.99
2017-10-01T11:53:44.194Z,99.99
2017-10-01T11:54:53.033Z,99.99
2017-10-01T11:56:01.872Z,99.99
2017-10-01T11:57:10.965Z,99.99
2017-10-01T11:58:19.807Z,99.99
2017-10-01T11:59:28.980Z,99.99
2017-10-01T12:00:37.824Z,99.99
2017-10-01T12:01:46.666Z,99.99
2017-10-01T12:02:55.563Z,99.99
2017-10-01T12:04:04.405Z,99.99
2017-10-01T12:05:13.242Z,99.99
2017-10-01T12:06:22.281Z,99.99
2017-10-01T12:07:31.118Z,99.99
2017-10-01T12:08:40.205Z,99.99
2017-10-01T12:09:49.042Z,99.99
2017-10-01T12:10:57.879Z,99.99
2017-10-01T12:12:06.716Z,99.99
2017-10-01T12:13:15.554Z,99.99
2017-10-01T12:14:24.443Z,99.99
2017-10-01T12:15:33.279Z,99.99
2017-10-01T12:16:42.117Z,99.99
2017-10-01T12:17:50.956Z,99.99
2017-10-01T12:18:59.796Z,99.99
2017-10-01T12:20:08.934Z,99.99
2017-10-01T12:21:17.771Z,99.99
2017-10-01T12:22:26.610Z,99.99
2017-10-01T12:23:35.449Z,99.99
2017-10-01T12:24:44.287Z,99.99
2017-10-01T12:25:53.177Z,99.99
2017-10-01T12:27:02.017Z,99.99
2017-10-01T12:28:10.853Z,99.99
2017-10-01T12:29:19.691Z,99.99
2017-10-01T12:30:28.529Z,99.99
2017-10-01T12:31:37.418Z,99.99
2017-10-01T12:32:46.256Z,99.99
2017-10-01T12:33:55.458Z,99.99
2017-10-01T12:35:04.296Z,99.99
2017-10-01T12:36:13.134Z,99.99
2017-10-01T12:37:21.970Z,99.99
2017-10-01T12:38:30.811Z,99.99
2017-10-01T12:39:39.650Z,99.99
2017-10-01T12:40:48.489Z,99.99
2017-10-01T12:41:57.329Z,99.99
2017-10-01T12:43:06.317Z,99.99
2017-10-01T12:44:15.154Z,99.99
2017-10-01T12:45:23.993Z,99.99
2017-10-01T12:46:32.832Z,99.99
2017-10-01T12:47:41.672Z,99.99
2017-10-01T12:48:50.666Z,99.99
2017-10-01T12:49:59.506Z,99.99
2017-10-01T12:51:08.345Z,99.99
2017-10-01T12:52:17.200Z,99.99
2017-10-01T12:53:26.038Z,99.99
2017-10-01T12:54:35.029Z,99.99
2017-10-01T12:55:43.867Z,99.99
2017-10-01T12:56:52.710Z,99.99
2017-10-01T12:58:01.881Z,99.99
2017-10-01T12:59:10.719Z,99.99
2017-10-01T13:00:19.655Z,99.99
2017-10-01T13:01:28.492Z,99.99
2017-10-01T13:02:37.331Z,99.99
2017-10-01T13:03:46.171Z,99.99
2017-10-01T13:04:55.339Z,99.99
2017-10-01T13:06:04.228Z,99.99
2017-10-01T13:07:13.066Z,99.99
2017-10-01T13:08:21.904Z,99.99
2017-10-01T13:09:30.743Z,99.99
2017-10-01T13:10:39.582Z,99.99
2017-10-01T13:11:48.811Z,99.99
2017-10-01T13:12:57.653Z,99.99
2017-10-01T13:14:06.490Z,99.99
2017-10-01T13:15:15.328Z,99.99
2017-10-01T13:16:24.166Z,99.99
2017-10-01T13:17:33.104Z,99.99
2017-10-01T13:18:41.943Z,99.99
2017-10-01T13:19:50.782Z,99.99
2017-10-01T13:20:59.618Z,99.99
2017-10-01T13:22:08.459Z,99.99
2017-10-01T13:23:17.349Z,99.99
2017-10-01T13:24:26.190Z,99.99
2017-10-01T13:25:35.029Z,99.99
2017-10-01T13:26:43.876Z,98.38
2017-10-01T13:27:52.716Z,99.87
2017-10-01T13:29:01.803Z,99.99
2017-10-01T13:30:10.641Z,99.99
2017-10-01T13:31:19.479Z,99.63
2017-10-01T13:32:28.324Z,99.44
2017-10-01T13:33:37.495Z,99.99
2017-10-01T13:34:46.481Z,99.99
2017-10-01T13:35:55.318Z,98.96
2017-10-01T13:37:04.156Z,98.48
2017-10-01T13:38:12.996Z,99.99
2017-10-01T13:39:21.835Z,98.58
2017-10-01T13:40:30.839Z,97.52
2017-10-01T13:41:39.678Z,96.75
2017-10-01T13:42:48.518Z,95.98
2017-10-01T13:43:57.358Z,95.89
2017-10-01T13:45:06.196Z,95.89
2017-10-01T13:46:15.087Z,96.85
2017-10-01T13:47:23.927Z,97.14
2017-10-01T13:48:32.765Z,96.85
2017-10-01T13:49:41.605Z,97.61
2017-10-01T13:50:50.444Z,98.29
2017-10-01T13:51:59.435Z,96.37
2017-10-01T13:53:08.274Z,96.18
2017-10-01T13:54:17.446Z,96.47
2017-10-01T13:55:26.286Z,98.19
2017-10-01T13:56:35.129Z,95.89
2017-10-01T13:57:44.266Z,96.47
2017-10-01T13:58:53.108Z,95.89
2017-10-01T14:00:01.947Z,96.03
2017-10-01T14:01:10.785Z,96.32
2017-10-01T14:02:19.625Z,97.14
2017-10-01T14:03:28.945Z,97.09
2017-10-01T14:04:37.784Z,96.61
2017-10-01T14:05:46.627Z,98.34
2017-10-01T14:06:55.467Z,97.86
2017-10-01T14:08:04.306Z,95.26
2017-10-01T14:09:13.144Z,94.69
2017-10-01T14:10:21.983Z,95.17
2017-10-01T14:11:30.831Z,95.75
2017-10-01T14:12:39.672Z,95.36
2017-10-01T14:13:48.510Z,94.31
2017-10-01T14:14:57.981Z,95.36
2017-10-01T14:16:06.819Z,94.83
2017-10-01T14:17:15.659Z,95.41
2017-10-01T14:18:24.501Z,97.91
2017-10-01T14:19:33.341Z,96.85
2017-10-01T14:20:42.340Z,97.52
2017-10-01T14:21:51.184Z,98.19
2017-10-01T14:23:00.024Z,95.7
2017-10-01T14:24:08.865Z,95.7
2017-10-01T14:25:17.700Z,96.85
2017-10-01T14:26:26.688Z,97.61
2017-10-01T14:27:35.527Z,97.52
2017-10-01T14:28:44.365Z,97.33
2017-10-01T14:29:53.201Z,96.66
2017-10-01T14:31:02.038Z,98.38
2017-10-01T14:32:10.927Z,99.05
2017-10-01T14:33:19.768Z,99.25
2017-10-01T14:34:28.606Z,99.01
2017-10-01T14:35:37.443Z,99.68
2017-10-01T14:36:46.283Z,98.38
2017-10-01T14:37:55.169Z,99.2
2017-10-01T14:39:04.007Z,98.72
2017-10-01T14:40:12.844Z,99.01
2017-10-01T14:41:21.682Z,99.2
2017-10-01T14:42:30.519Z,99.87
2017-10-01T14:43:39.356Z,99.99
2017-10-01T14:44:48.194Z,99.29
2017-10-01T14:45:57.032Z,99.68
2017-10-01T14:47:05.871Z,99.58
2017-10-01T14:48:14.709Z,99.39
2017-10-01T14:49:23.700Z,99.99